sensor_id;sensor_type;location;lat;lon;timestamp;pressure;altitude;pressure_sealevel;temperature;humidity
42671;BME280;28283;55.426;37.756;2023-03-04T00:00:28;97751.16;;;-3.66;85.43
42671;BME280;28283;55.426;37.756;2023-03-04T00:05:28;97742.50;;;-3.58;84.76
42671;BME280;28283;55.426;37.756;2023-03-04T00:10:31;97723.38;;;-3.68;85.54
42671;BME280;28283;55.426;37.756;2023-03-04T00:15:31;97715.28;;;-3.57;85.83
42671;BME280;28283;55.426;37.756;2023-03-04T00:20:32;97721.72;;;-3.51;85.32
42671;BME280;28283;55.426;37.756;2023-03-04T00:25:32;97680.94;;;-3.81;85.79
42671;BME280;28283;55.426;37.756;2023-03-04T00:30:33;97711.28;;;-3.61;86.32
42671;BME280;28283;55.426;37.756;2023-03-04T00:35:34;97704.03;;;-3.67;86.88
42671;BME280;28283;55.426;37.756;2023-03-04T00:40:34;97697.25;;;-3.52;86.85
42671;BME280;28283;55.426;37.756;2023-03-04T00:45:35;97694.72;;;-3.61;87.38
42671;BME280;28283;55.426;37.756;2023-03-04T00:50:35;97697.91;;;-3.32;87.73
42671;BME280;28283;55.426;37.756;2023-03-04T00:55:36;97691.28;;;-3.62;87.22
42671;BME280;28283;55.426;37.756;2023-03-04T01:00:37;97692.16;;;-3.53;87.33
42671;BME280;28283;55.426;37.756;2023-03-04T01:05:37;97689.97;;;-3.58;87.86
42671;BME280;28283;55.426;37.756;2023-03-04T01:10:38;97690.78;;;-3.39;88.82
42671;BME280;28283;55.426;37.756;2023-03-04T01:15:39;97683.25;;;-3.34;88.24
42671;BME280;28283;55.426;37.756;2023-03-04T01:20:39;97675.53;;;-3.36;88.80
42671;BME280;28283;55.426;37.756;2023-03-04T01:25:40;97669.75;;;-3.39;89.13
42671;BME280;28283;55.426;37.756;2023-03-04T01:30:40;97672.16;;;-3.28;88.98
42671;BME280;28283;55.426;37.756;2023-03-04T01:35:41;97652.22;;;-3.39;90.15
42671;BME280;28283;55.426;37.756;2023-03-04T01:40:41;97664.00;;;-3.17;89.94
42671;BME280;28283;55.426;37.756;2023-03-04T01:45:42;97650.28;;;-3.29;89.27
42671;BME280;28283;55.426;37.756;2023-03-04T01:50:42;97655.31;;;-3.09;90.15
42671;BME280;28283;55.426;37.756;2023-03-04T01:55:43;97637.72;;;-3.17;89.83
42671;BME280;28283;55.426;37.756;2023-03-04T02:00:44;97642.25;;;-2.93;90.12
42671;BME280;28283;55.426;37.756;2023-03-04T02:05:47;97642.22;;;-3.01;89.47
42671;BME280;28283;55.426;37.756;2023-03-04T02:10:50;97630.53;;;-3.07;89.82
42671;BME280;28283;55.426;37.756;2023-03-04T02:15:51;97633.34;;;-3.00;90.12
42671;BME280;28283;55.426;37.756;2023-03-04T02:26:16;97619.28;;;-2.91;90.06
42671;BME280;28283;55.426;37.756;2023-03-04T02:36:24;97580.25;;;-3.03;90.61
42671;BME280;28283;55.426;37.756;2023-03-04T02:41:25;97596.47;;;-2.74;89.76
42671;BME280;28283;55.426;37.756;2023-03-04T02:46:29;97592.69;;;-2.79;90.27
42671;BME280;28283;55.426;37.756;2023-03-04T02:51:29;97582.38;;;-2.64;89.16
42671;BME280;28283;55.426;37.756;2023-03-04T02:56:29;97577.41;;;-2.76;88.67
42671;BME280;28283;55.426;37.756;2023-03-04T03:01:30;97575.91;;;-2.78;89.61
42671;BME280;28283;55.426;37.756;2023-03-04T03:06:31;97567.41;;;-2.72;89.20
42671;BME280;28283;55.426;37.756;2023-03-04T03:11:31;97556.06;;;-2.73;88.94
42671;BME280;28283;55.426;37.756;2023-03-04T03:16:32;97536.19;;;-2.67;88.60
42671;BME280;28283;55.426;37.756;2023-03-04T03:21:32;97547.84;;;-2.78;89.24
42671;BME280;28283;55.426;37.756;2023-03-04T03:26:34;97543.41;;;-2.61;89.21
42671;BME280;28283;55.426;37.756;2023-03-04T03:31:34;97540.28;;;-2.73;88.86
42671;BME280;28283;55.426;37.756;2023-03-04T03:36:35;97529.44;;;-2.61;88.85
42671;BME280;28283;55.426;37.756;2023-03-04T03:41:36;97517.94;;;-2.36;88.48
42671;BME280;28283;55.426;37.756;2023-03-04T03:46:36;97520.41;;;-2.67;87.90
42671;BME280;28283;55.426;37.756;2023-03-04T03:51:37;97495.06;;;-2.68;88.69
42671;BME280;28283;55.426;37.756;2023-03-04T03:56:38;97503.47;;;-2.73;89.27
42671;BME280;28283;55.426;37.756;2023-03-04T04:01:38;97490.97;;;-2.46;88.94
42671;BME280;28283;55.426;37.756;2023-03-04T04:06:39;97490.13;;;-2.71;89.33
42671;BME280;28283;55.426;37.756;2023-03-04T04:11:40;97465.34;;;-2.44;89.39
42671;BME280;28283;55.426;37.756;2023-03-04T04:16:41;97462.22;;;-2.72;88.75
42671;BME280;28283;55.426;37.756;2023-03-04T04:21:41;97473.22;;;-2.60;89.54
42671;BME280;28283;55.426;37.756;2023-03-04T04:26:42;97451.84;;;-2.74;89.53
42671;BME280;28283;55.426;37.756;2023-03-04T04:31:42;97453.34;;;-2.55;88.96
42671;BME280;28283;55.426;37.756;2023-03-04T04:36:43;97455.00;;;-2.62;89.77
42671;BME280;28283;55.426;37.756;2023-03-04T04:41:44;97450.88;;;-2.56;89.70
42671;BME280;28283;55.426;37.756;2023-03-04T04:46:45;97451.19;;;-2.35;89.69
42671;BME280;28283;55.426;37.756;2023-03-04T04:51:46;97450.53;;;-2.45;89.14
42671;BME280;28283;55.426;37.756;2023-03-04T04:56:46;97454.31;;;-2.39;89.29
42671;BME280;28283;55.426;37.756;2023-03-04T05:01:47;97440.97;;;-2.46;88.68
42671;BME280;28283;55.426;37.756;2023-03-04T05:06:48;97451.53;;;-2.29;89.38
42671;BME280;28283;55.426;37.756;2023-03-04T05:11:49;97450.69;;;-2.22;89.78
42671;BME280;28283;55.426;37.756;2023-03-04T05:16:49;97439.63;;;-2.17;89.27
42671;BME280;28283;55.426;37.756;2023-03-04T05:21:52;97445.06;;;-2.02;89.07
42671;BME280;28283;55.426;37.756;2023-03-04T05:26:52;97437.81;;;-2.00;88.39
42671;BME280;28283;55.426;37.756;2023-03-04T05:31:55;97416.59;;;-1.99;88.34
42671;BME280;28283;55.426;37.756;2023-03-04T05:36:56;97410.06;;;-1.71;87.96
42671;BME280;28283;55.426;37.756;2023-03-04T05:41:57;97434.03;;;-1.50;86.89
42671;BME280;28283;55.426;37.756;2023-03-04T05:47:03;97407.22;;;-1.62;86.64
42671;BME280;28283;55.426;37.756;2023-03-04T05:52:04;97428.88;;;-1.43;85.75
42671;BME280;28283;55.426;37.756;2023-03-04T05:57:04;97419.34;;;-1.44;84.94
42671;BME280;28283;55.426;37.756;2023-03-04T06:02:05;97421.47;;;-1.40;85.10
42671;BME280;28283;55.426;37.756;2023-03-04T06:07:06;97414.88;;;-1.44;84.82
42671;BME280;28283;55.426;37.756;2023-03-04T06:12:06;97399.63;;;-1.25;84.29
42671;BME280;28283;55.426;37.756;2023-03-04T06:17:09;97410.56;;;-1.37;84.62
42671;BME280;28283;55.426;37.756;2023-03-04T06:22:11;97397.41;;;-1.13;83.95
42671;BME280;28283;55.426;37.756;2023-03-04T06:27:15;97379.31;;;-1.17;83.40
42671;BME280;28283;55.426;37.756;2023-03-04T06:32:16;97354.47;;;-0.99;82.85
42671;BME280;28283;55.426;37.756;2023-03-04T06:37:22;97373.38;;;-0.72;82.45
42671;BME280;28283;55.426;37.756;2023-03-04T06:42:23;97374.38;;;-0.73;82.11
42671;BME280;28283;55.426;37.756;2023-03-04T06:47:24;97371.66;;;-0.65;81.65
42671;BME280;28283;55.426;37.756;2023-03-04T06:52:24;97371.13;;;-0.61;81.08
42671;BME280;28283;55.426;37.756;2023-03-04T06:57:25;97368.97;;;-0.57;80.89
42671;BME280;28283;55.426;37.756;2023-03-04T07:02:26;97353.59;;;-0.53;80.66
42671;BME280;28283;55.426;37.756;2023-03-04T07:07:26;97355.16;;;-0.44;80.35
42671;BME280;28283;55.426;37.756;2023-03-04T07:12:27;97311.44;;;-0.62;79.68
42671;BME280;28283;55.426;37.756;2023-03-04T07:17:28;97324.66;;;-0.32;79.69
42671;BME280;28283;55.426;37.756;2023-03-04T07:22:28;97331.03;;;-0.11;78.99
42671;BME280;28283;55.426;37.756;2023-03-04T07:27:29;97316.28;;;0.09;79.00
42671;BME280;28283;55.426;37.756;2023-03-04T07:32:30;97312.75;;;0.38;77.42
42671;BME280;28283;55.426;37.756;2023-03-04T07:37:33;97303.88;;;0.46;76.12
42671;BME280;28283;55.426;37.756;2023-03-04T07:42:34;97288.78;;;0.40;76.07
42671;BME280;28283;55.426;37.756;2023-03-04T07:47:35;97300.06;;;0.49;76.56
42671;BME280;28283;55.426;37.756;2023-03-04T07:52:43;97296.03;;;0.53;75.49
42671;BME280;28283;55.426;37.756;2023-03-04T07:57:46;97287.09;;;0.54;75.41
42671;BME280;28283;55.426;37.756;2023-03-04T08:02:46;97276.91;;;0.51;75.59
42671;BME280;28283;55.426;37.756;2023-03-04T08:07:50;97263.59;;;0.44;75.59
42671;BME280;28283;55.426;37.756;2023-03-04T08:12:50;97269.06;;;0.64;74.95
42671;BME280;28283;55.426;37.756;2023-03-04T08:17:51;97256.38;;;0.74;74.86
42671;BME280;28283;55.426;37.756;2023-03-04T08:22:52;97261.13;;;0.86;75.03
42671;BME280;28283;55.426;37.756;2023-03-04T08:27:53;97256.97;;;0.98;73.84
42671;BME280;28283;55.426;37.756;2023-03-04T08:32:53;97253.78;;;1.09;73.72
42671;BME280;28283;55.426;37.756;2023-03-04T08:37:54;97243.19;;;1.03;73.94
42671;BME280;28283;55.426;37.756;2023-03-04T08:42:55;97249.66;;;1.00;73.23
42671;BME280;28283;55.426;37.756;2023-03-04T08:47:56;97234.63;;;1.01;72.81
42671;BME280;28283;55.426;37.756;2023-03-04T08:52:57;97221.81;;;1.04;72.23
42671;BME280;28283;55.426;37.756;2023-03-04T08:57:58;97208.63;;;1.11;73.49
42671;BME280;28283;55.426;37.756;2023-03-04T09:02:59;97216.59;;;1.52;72.54
42671;BME280;28283;55.426;37.756;2023-03-04T09:07:59;97189.69;;;1.42;72.38
42671;BME280;28283;55.426;37.756;2023-03-04T09:13:00;97188.66;;;1.43;71.42
42671;BME280;28283;55.426;37.756;2023-03-04T09:18:02;97197.88;;;1.54;70.42
42671;BME280;28283;55.426;37.756;2023-03-04T09:23:03;97164.81;;;1.37;70.71
42671;BME280;28283;55.426;37.756;2023-03-04T09:28:05;97160.34;;;1.37;70.85
42671;BME280;28283;55.426;37.756;2023-03-04T09:33:06;97176.13;;;1.24;70.33
42671;BME280;28283;55.426;37.756;2023-03-04T09:38:07;97148.81;;;1.17;69.76
42671;BME280;28283;55.426;37.756;2023-03-04T09:43:18;97149.59;;;1.10;70.11
42671;BME280;28283;55.426;37.756;2023-03-04T09:48:21;97118.22;;;1.07;71.13
42671;BME280;28283;55.426;37.756;2023-03-04T09:53:46;97117.47;;;1.20;70.47
42671;BME280;28283;55.426;37.756;2023-03-04T09:59:24;97111.66;;;1.31;69.60
42671;BME280;28283;55.426;37.756;2023-03-04T10:04:31;97100.88;;;1.33;69.95
42671;BME280;28283;55.426;37.756;2023-03-04T10:15:02;97080.91;;;1.37;69.77
42671;BME280;28283;55.426;37.756;2023-03-04T10:20:06;97081.72;;;1.38;70.44
42671;BME280;28283;55.426;37.756;2023-03-04T10:25:26;97022.22;;;1.13;70.88
42671;BME280;28283;55.426;37.756;2023-03-04T10:30:50;97058.72;;;1.31;72.33
42671;BME280;28283;55.426;37.756;2023-03-04T10:36:03;97055.22;;;1.24;72.98
42671;BME280;28283;55.426;37.756;2023-03-04T10:41:24;97024.31;;;1.38;73.06
42671;BME280;28283;55.426;37.756;2023-03-04T10:46:25;97023.91;;;1.41;72.60
42671;BME280;28283;55.426;37.756;2023-03-04T10:51:28;97026.38;;;1.49;73.04
42671;BME280;28283;55.426;37.756;2023-03-04T10:56:36;97019.44;;;1.42;73.03
42671;BME280;28283;55.426;37.756;2023-03-04T11:01:37;97011.50;;;1.35;74.15
42671;BME280;28283;55.426;37.756;2023-03-04T11:06:41;97016.38;;;1.31;73.67
42671;BME280;28283;55.426;37.756;2023-03-04T11:11:42;96985.53;;;1.04;74.67
42671;BME280;28283;55.426;37.756;2023-03-04T11:16:55;96979.41;;;0.97;74.75
42671;BME280;28283;55.426;37.756;2023-03-04T11:21:57;96960.16;;;0.68;75.21
42671;BME280;28283;55.426;37.756;2023-03-04T11:32:22;96963.44;;;0.70;77.28
42671;BME280;28283;55.426;37.756;2023-03-04T11:37:39;96965.88;;;0.71;77.14
42671;BME280;28283;55.426;37.756;2023-03-04T11:42:48;96951.19;;;0.62;78.09
42671;BME280;28283;55.426;37.756;2023-03-04T11:53:39;96939.31;;;0.45;79.63
42671;BME280;28283;55.426;37.756;2023-03-04T11:59:07;96927.31;;;0.42;80.53
42671;BME280;28283;55.426;37.756;2023-03-04T12:25:33;96881.34;;;0.36;81.86
42671;BME280;28283;55.426;37.756;2023-03-04T12:35:52;96860.84;;;0.38;81.48
42671;BME280;28283;55.426;37.756;2023-03-04T12:52:03;96835.22;;;0.39;81.82
42671;BME280;28283;55.426;37.756;2023-03-04T12:57:12;96833.41;;;0.46;81.99
42671;BME280;28283;55.426;37.756;2023-03-04T13:02:58;96823.66;;;0.47;82.74
42671;BME280;28283;55.426;37.756;2023-03-04T13:13:35;96783.38;;;0.31;82.88
42671;BME280;28283;55.426;37.756;2023-03-04T13:18:39;96787.22;;;0.35;82.14
42671;BME280;28283;55.426;37.756;2023-03-04T13:23:40;96775.81;;;0.28;82.94
42671;BME280;28283;55.426;37.756;2023-03-04T13:28:41;96779.91;;;0.37;83.25
42671;BME280;28283;55.426;37.756;2023-03-04T13:33:47;96773.63;;;0.38;83.24
42671;BME280;28283;55.426;37.756;2023-03-04T13:39:00;96759.19;;;0.34;83.44
42671;BME280;28283;55.426;37.756;2023-03-04T13:44:05;96759.81;;;0.36;83.25
42671;BME280;28283;55.426;37.756;2023-03-04T13:49:23;96746.78;;;0.35;83.11
42671;BME280;28283;55.426;37.756;2023-03-04T13:59:38;96739.28;;;0.38;83.39
42671;BME280;28283;55.426;37.756;2023-03-04T14:04:45;96715.66;;;0.30;83.33
42671;BME280;28283;55.426;37.756;2023-03-04T14:25:34;96702.63;;;0.15;84.21
42671;BME280;28283;55.426;37.756;2023-03-04T14:30:42;96676.81;;;0.04;84.09
42671;BME280;28283;55.426;37.756;2023-03-04T14:35:48;96685.56;;;0.11;84.59
42671;BME280;28283;55.426;37.756;2023-03-04T14:40:52;96676.22;;;0.15;84.76
42671;BME280;28283;55.426;37.756;2023-03-04T14:45:57;96660.34;;;0.09;84.76
42671;BME280;28283;55.426;37.756;2023-03-04T14:51:01;96665.88;;;0.07;85.22
42671;BME280;28283;55.426;37.756;2023-03-04T14:56:03;96664.84;;;0.08;85.48
42671;BME280;28283;55.426;37.756;2023-03-04T15:01:14;96660.34;;;0.09;85.58
42671;BME280;28283;55.426;37.756;2023-03-04T15:06:20;96656.31;;;0.13;85.55
42671;BME280;28283;55.426;37.756;2023-03-04T15:11:25;96660.34;;;0.09;85.58
42671;BME280;28283;55.426;37.756;2023-03-04T15:16:28;96657.91;;;0.01;85.76
42671;BME280;28283;55.426;37.756;2023-03-04T15:21:48;96642.47;;;0.04;85.29
42671;BME280;28283;55.426;37.756;2023-03-04T15:26:49;96583.09;;;-0.40;85.44
42671;BME280;28283;55.426;37.756;2023-03-04T15:31:51;96603.22;;;-0.26;85.96
42671;BME280;28283;55.426;37.756;2023-03-04T15:36:52;96634.72;;;-0.11;86.51
42671;BME280;28283;55.426;37.756;2023-03-04T15:41:53;96624.78;;;-0.15;86.59
42671;BME280;28283;55.426;37.756;2023-03-04T15:46:55;96597.31;;;-0.28;86.23
42671;BME280;28283;55.426;37.756;2023-03-04T15:51:56;96623.75;;;-0.21;86.56
42671;BME280;28283;55.426;37.756;2023-03-04T15:56:57;96605.03;;;-0.33;86.92
42671;BME280;28283;55.426;37.756;2023-03-04T16:01:59;96607.44;;;-0.38;86.75
42671;BME280;28283;55.426;37.756;2023-03-04T16:07:00;96617.41;;;-0.33;87.48
42671;BME280;28283;55.426;37.756;2023-03-04T16:12:01;96618.22;;;-0.33;87.88
42671;BME280;28283;55.426;37.756;2023-03-04T16:17:01;96610.50;;;-0.34;88.18
42671;BME280;28283;55.426;37.756;2023-03-04T16:22:02;96606.03;;;-0.41;88.45
42671;BME280;28283;55.426;37.756;2023-03-04T16:27:04;96608.50;;;-0.26;87.76
42671;BME280;28283;55.426;37.756;2023-03-04T16:32:06;96590.63;;;-0.37;88.09
42671;BME280;28283;55.426;37.756;2023-03-04T16:37:13;96573.94;;;-0.44;88.63
42671;BME280;28283;55.426;37.756;2023-03-04T16:42:16;96567.22;;;-0.53;88.90
42671;BME280;28283;55.426;37.756;2023-03-04T16:47:18;96575.16;;;-0.47;88.98
42671;BME280;28283;55.426;37.756;2023-03-04T16:52:28;96579.84;;;-0.42;89.58
42671;BME280;28283;55.426;37.756;2023-03-04T16:57:30;96569.47;;;-0.44;89.16
42671;BME280;28283;55.426;37.756;2023-03-04T17:02:31;96570.91;;;-0.34;89.08
42671;BME280;28283;55.426;37.756;2023-03-04T17:07:32;96574.59;;;-0.35;89.31
42671;BME280;28283;55.426;37.756;2023-03-04T17:12:34;96555.28;;;-0.36;89.18
42671;BME280;28283;55.426;37.756;2023-03-04T17:17:34;96563.41;;;-0.37;89.33
42671;BME280;28283;55.426;37.756;2023-03-04T17:22:35;96560.97;;;-0.39;88.95
42671;BME280;28283;55.426;37.756;2023-03-04T17:27:38;96565.22;;;-0.38;89.05
42671;BME280;28283;55.426;37.756;2023-03-04T17:32:40;96553.84;;;-0.45;88.98
42671;BME280;28283;55.426;37.756;2023-03-04T17:37:43;96568.66;;;-0.44;89.08
42671;BME280;28283;55.426;37.756;2023-03-04T17:42:46;96565.66;;;-0.21;88.16
42671;BME280;28283;55.426;37.756;2023-03-04T17:47:46;96526.84;;;-0.41;87.57
42671;BME280;28283;55.426;37.756;2023-03-04T17:52:53;96538.84;;;-0.45;87.84
42671;BME280;28283;55.426;37.756;2023-03-04T17:57:54;96547.75;;;-0.46;88.17
42671;BME280;28283;55.426;37.756;2023-03-04T18:02:57;96538.44;;;-0.48;88.14
42671;BME280;28283;55.426;37.756;2023-03-04T18:07:58;96554.69;;;-0.31;87.15
42671;BME280;28283;55.426;37.756;2023-03-04T18:12:59;96554.91;;;-0.26;86.42
42671;BME280;28283;55.426;37.756;2023-03-04T18:18:00;96546.72;;;-0.58;87.46
42671;BME280;28283;55.426;37.756;2023-03-04T18:23:00;96569.69;;;-0.39;87.47
42671;BME280;28283;55.426;37.756;2023-03-04T18:28:04;96551.41;;;-0.53;87.88
42671;BME280;28283;55.426;37.756;2023-03-04T18:33:04;96565.84;;;-0.43;87.78
42671;BME280;28283;55.426;37.756;2023-03-04T18:38:08;96566.41;;;-0.47;88.14
42671;BME280;28283;55.426;37.756;2023-03-04T18:43:09;96554.88;;;-0.46;88.42
42671;BME280;28283;55.426;37.756;2023-03-04T18:48:10;96556.72;;;-0.33;87.66
42671;BME280;28283;55.426;37.756;2023-03-04T18:53:14;96527.66;;;-0.53;87.16
42671;BME280;28283;55.426;37.756;2023-03-04T18:58:15;96527.47;;;-0.25;84.96
42671;BME280;28283;55.426;37.756;2023-03-04T19:03:15;96547.59;;;-0.17;84.50
42671;BME280;28283;55.426;37.756;2023-03-04T19:08:16;96543.31;;;-0.25;84.19
42671;BME280;28283;55.426;37.756;2023-03-04T19:13:17;96568.06;;;-0.40;84.84
42671;BME280;28283;55.426;37.756;2023-03-04T19:18:18;96560.34;;;-0.48;84.37
42671;BME280;28283;55.426;37.756;2023-03-04T19:23:19;96528.69;;;-0.48;83.60
42671;BME280;28283;55.426;37.756;2023-03-04T19:28:20;96518.06;;;-0.74;83.24
42671;BME280;28283;55.426;37.756;2023-03-04T19:33:23;96556.22;;;-0.64;84.50
42671;BME280;28283;55.426;37.756;2023-03-04T19:38:25;96551.78;;;-0.70;84.35
42671;BME280;28283;55.426;37.756;2023-03-04T19:43:26;96536.00;;;-0.36;82.41
42671;BME280;28283;55.426;37.756;2023-03-04T19:48:27;96537.63;;;-0.42;82.25
42671;BME280;28283;55.426;37.756;2023-03-04T19:53:28;96518.34;;;-0.29;78.06
42671;BME280;28283;55.426;37.756;2023-03-04T19:58:31;96547.38;;;-0.43;79.48
42671;BME280;28283;55.426;37.756;2023-03-04T20:03:32;96549.09;;;-0.77;79.67
42671;BME280;28283;55.426;37.756;2023-03-04T20:08:34;96550.53;;;-0.67;79.52
42671;BME280;28283;55.426;37.756;2023-03-04T20:13:35;96536.75;;;-0.69;79.91
42671;BME280;28283;55.426;37.756;2023-03-04T20:18:38;96511.72;;;-0.87;79.66
42671;BME280;28283;55.426;37.756;2023-03-04T20:23:39;96549.00;;;-1.03;80.71
42671;BME280;28283;55.426;37.756;2023-03-04T20:28:40;96544.78;;;-0.91;80.48
42671;BME280;28283;55.426;37.756;2023-03-04T20:33:40;96532.00;;;-0.94;80.60
42671;BME280;28283;55.426;37.756;2023-03-04T20:38:41;96519.84;;;-0.95;79.80
42671;BME280;28283;55.426;37.756;2023-03-04T20:43:42;96537.53;;;-0.82;79.68
42671;BME280;28283;55.426;37.756;2023-03-04T20:48:42;96519.72;;;-0.60;78.40
42671;BME280;28283;55.426;37.756;2023-03-04T20:53:43;96552.72;;;-0.84;79.05
42671;BME280;28283;55.426;37.756;2023-03-04T20:58:44;96555.56;;;-0.79;79.00
42671;BME280;28283;55.426;37.756;2023-03-04T21:03:47;96538.28;;;-0.95;78.94
42671;BME280;28283;55.426;37.756;2023-03-04T21:08:48;96514.47;;;-1.15;79.95
42671;BME280;28283;55.426;37.756;2023-03-04T21:13:50;96534.84;;;-0.89;79.54
42671;BME280;28283;55.426;37.756;2023-03-04T21:18:55;96543.34;;;-1.00;79.72
42671;BME280;28283;55.426;37.756;2023-03-04T21:23:56;96537.69;;;-0.90;78.85
42671;BME280;28283;55.426;37.756;2023-03-04T21:28:57;96528.00;;;-1.25;79.25
42671;BME280;28283;55.426;37.756;2023-03-04T21:33:58;96551.59;;;-1.10;79.07
42671;BME280;28283;55.426;37.756;2023-03-04T21:38:59;96547.84;;;-0.87;77.97
42671;BME280;28283;55.426;37.756;2023-03-04T21:44:00;96527.75;;;-0.95;78.14
42671;BME280;28283;55.426;37.756;2023-03-04T21:49:01;96507.88;;;-1.39;78.41
42671;BME280;28283;55.426;37.756;2023-03-04T21:54:02;96533.78;;;-1.01;78.40
42671;BME280;28283;55.426;37.756;2023-03-04T21:59:05;96527.63;;;-1.15;79.10
42671;BME280;28283;55.426;37.756;2023-03-04T22:04:06;96534.09;;;-1.24;79.03
42671;BME280;28283;55.426;37.756;2023-03-04T22:09:07;96507.91;;;-1.32;79.31
42671;BME280;28283;55.426;37.756;2023-03-04T22:14:09;96524.41;;;-1.17;79.11
42671;BME280;28283;55.426;37.756;2023-03-04T22:19:10;96516.47;;;-1.24;78.71
42671;BME280;28283;55.426;37.756;2023-03-04T22:24:10;96532.19;;;-1.02;78.53
42671;BME280;28283;55.426;37.756;2023-03-04T22:41:48;96528.66;;;-1.16;78.68
42671;BME280;28283;55.426;37.756;2023-03-04T22:46:49;96504.94;;;-1.16;79.02
42671;BME280;28283;55.426;37.756;2023-03-04T22:51:49;96529.66;;;-1.24;78.46
42671;BME280;28283;55.426;37.756;2023-03-04T22:56:50;96507.78;;;-1.18;79.16
42671;BME280;28283;55.426;37.756;2023-03-04T23:01:51;96521.91;;;-1.32;78.64
42671;BME280;28283;55.426;37.756;2023-03-04T23:06:51;96537.94;;;-1.27;79.57
42671;BME280;28283;55.426;37.756;2023-03-04T23:11:52;96530.19;;;-1.35;79.32
42671;BME280;28283;55.426;37.756;2023-03-04T23:16:52;96534.81;;;-1.44;79.92
42671;BME280;28283;55.426;37.756;2023-03-04T23:21:53;96530.97;;;-1.41;80.25
42671;BME280;28283;55.426;37.756;2023-03-04T23:26:54;96525.84;;;-1.49;79.37
42671;BME280;28283;55.426;37.756;2023-03-04T23:31:54;96528.47;;;-1.56;80.46
42671;BME280;28283;55.426;37.756;2023-03-04T23:36:55;96537.56;;;-1.24;79.02
42671;BME280;28283;55.426;37.756;2023-03-04T23:41:56;96537.38;;;-1.57;79.71
42671;BME280;28283;55.426;37.756;2023-03-04T23:46:56;96507.91;;;-1.74;80.17
42671;BME280;28283;55.426;37.756;2023-03-04T23:51:57;96499.09;;;-1.53;79.56
42671;BME280;28283;55.426;37.756;2023-03-04T23:56:58;96507.88;;;-1.39;79.03
